sensor_id;sensor_type;location;lat;lon;timestamp;pressure;altitude;pressure_sealevel;temperature;humidity
55466;BME280;41329;41.594;23.810;2023-03-14T00:01:14;95520.88;;;5.09;52.93
55466;BME280;41329;41.594;23.810;2023-03-14T00:03:40;95524.56;;;5.13;53.10
55466;BME280;41329;41.594;23.810;2023-03-14T00:06:07;95522.47;;;5.10;53.08
55466;BME280;41329;41.594;23.810;2023-03-14T00:08:32;95523.31;;;5.10;53.08
55466;BME280;41329;41.594;23.810;2023-03-14T00:10:58;95515.06;;;5.10;53.27
55466;BME280;41329;41.594;23.810;2023-03-14T00:13:28;95509.38;;;5.15;53.27
55466;BME280;41329;41.594;23.810;2023-03-14T00:15:53;95489.00;;;5.04;53.37
55466;BME280;41329;41.594;23.810;2023-03-14T00:18:19;95507.59;;;5.19;53.29
55466;BME280;41329;41.594;23.810;2023-03-14T00:20:45;95503.03;;;5.23;52.90
55466;BME280;41329;41.594;23.810;2023-03-14T00:23:10;95475.34;;;5.16;53.33
55466;BME280;41329;41.594;23.810;2023-03-14T00:25:35;95487.19;;;5.29;52.98
55466;BME280;41329;41.594;23.810;2023-03-14T00:28:01;95490.25;;;5.27;52.84
55466;BME280;41329;41.594;23.810;2023-03-14T00:30:26;95476.03;;;5.13;53.08
55466;BME280;41329;41.594;23.810;2023-03-14T00:32:52;95482.69;;;5.24;53.35
55466;BME280;41329;41.594;23.810;2023-03-14T00:35:18;95489.44;;;5.27;52.88
55466;BME280;41329;41.594;23.810;2023-03-14T00:37:43;95472.22;;;5.26;52.53
55466;BME280;41329;41.594;23.810;2023-03-14T00:40:09;95482.44;;;5.17;52.70
55466;BME280;41329;41.594;23.810;2023-03-14T00:42:35;95478.72;;;4.93;52.45
55466;BME280;41329;41.594;23.810;2023-03-14T00:45:00;95473.25;;;4.93;52.61
55466;BME280;41329;41.594;23.810;2023-03-14T00:47:26;95464.88;;;4.89;52.54
55466;BME280;41329;41.594;23.810;2023-03-14T00:49:51;95470.19;;;4.94;52.69
55466;BME280;41329;41.594;23.810;2023-03-14T00:52:17;95474.88;;;4.94;52.87
55466;BME280;41329;41.594;23.810;2023-03-14T00:54:42;95468.91;;;4.92;53.17
55466;BME280;41329;41.594;23.810;2023-03-14T00:57:08;95447.56;;;4.77;53.44
55466;BME280;41329;41.594;23.810;2023-03-14T00:59:33;95474.09;;;4.85;53.76
55466;BME280;41329;41.594;23.810;2023-03-14T01:01:58;95464.59;;;4.82;53.78
55466;BME280;41329;41.594;23.810;2023-03-14T01:04:24;95446.47;;;4.69;53.80
55466;BME280;41329;41.594;23.810;2023-03-14T01:06:49;95447.81;;;4.63;53.97
55466;BME280;41329;41.594;23.810;2023-03-14T01:09:18;95461.78;;;4.70;54.03
55466;BME280;41329;41.594;23.810;2023-03-14T01:11:43;95431.47;;;4.46;54.37
55466;BME280;41329;41.594;23.810;2023-03-14T01:14:11;95454.44;;;4.62;54.51
55466;BME280;41329;41.594;23.810;2023-03-14T01:16:37;95451.69;;;4.62;54.46
55466;BME280;41329;41.594;23.810;2023-03-14T01:19:03;95436.22;;;4.58;54.23
55466;BME280;41329;41.594;23.810;2023-03-14T01:21:32;95442.38;;;4.55;54.21
55466;BME280;41329;41.594;23.810;2023-03-14T01:24:00;95438.34;;;4.52;54.03
55466;BME280;41329;41.594;23.810;2023-03-14T01:26:30;95437.69;;;4.55;53.56
55466;BME280;41329;41.594;23.810;2023-03-14T01:28:56;95420.84;;;4.45;53.65
55466;BME280;41329;41.594;23.810;2023-03-14T01:31:23;95424.38;;;4.45;53.56
55466;BME280;41329;41.594;23.810;2023-03-14T01:33:49;95393.78;;;4.14;53.53
55466;BME280;41329;41.594;23.810;2023-03-14T01:36:14;95436.03;;;4.34;53.73
55466;BME280;41329;41.594;23.810;2023-03-14T01:38:40;95437.06;;;4.21;54.05
55466;BME280;41329;41.594;23.810;2023-03-14T01:41:07;95435.97;;;4.13;54.48
55466;BME280;41329;41.594;23.810;2023-03-14T01:43:33;95416.75;;;3.93;54.55
55466;BME280;41329;41.594;23.810;2023-03-14T01:51:02;95427.00;;;4.04;55.29
55466;BME280;41329;41.594;23.810;2023-03-14T01:53:29;95421.53;;;4.04;55.18
55466;BME280;41329;41.594;23.810;2023-03-14T01:55:55;95423.78;;;4.02;55.11
55466;BME280;41329;41.594;23.810;2023-03-14T01:58:25;95388.56;;;3.84;55.43
55466;BME280;41329;41.594;23.810;2023-03-14T02:00:53;95371.25;;;3.71;55.31
55466;BME280;41329;41.594;23.810;2023-03-14T02:03:22;95428.78;;;4.00;55.16
55466;BME280;41329;41.594;23.810;2023-03-14T02:05:49;95426.22;;;3.95;55.07
55466;BME280;41329;41.594;23.810;2023-03-14T02:08:18;95417.06;;;3.91;55.23
55466;BME280;41329;41.594;23.810;2023-03-14T02:10:47;95423.50;;;3.87;55.46
55466;BME280;41329;41.594;23.810;2023-03-14T02:13:15;95413.41;;;3.79;55.76
55466;BME280;41329;41.594;23.810;2023-03-14T02:15:41;95417.72;;;3.80;56.08
55466;BME280;41329;41.594;23.810;2023-03-14T02:18:08;95412.63;;;3.78;56.51
55466;BME280;41329;41.594;23.810;2023-03-14T02:20:45;95414.22;;;3.79;56.47
55466;BME280;41329;41.594;23.810;2023-03-14T02:23:15;95427.84;;;3.88;56.59
55466;BME280;41329;41.594;23.810;2023-03-14T02:25:54;95403.72;;;3.81;56.72
55466;BME280;41329;41.594;23.810;2023-03-14T02:28:23;95419.13;;;3.94;56.82
55466;BME280;41329;41.594;23.810;2023-03-14T02:30:49;95396.34;;;3.82;56.89
55466;BME280;41329;41.594;23.810;2023-03-14T02:33:17;95417.22;;;3.95;56.88
55466;BME280;41329;41.594;23.810;2023-03-14T02:36:00;95426.38;;;3.90;56.59
55466;BME280;41329;41.594;23.810;2023-03-14T02:40:58;95423.50;;;3.95;56.31
55466;BME280;41329;41.594;23.810;2023-03-14T02:43:23;95426.56;;;3.94;56.03
55466;BME280;41329;41.594;23.810;2023-03-14T02:45:51;95423.66;;;3.90;55.94
55466;BME280;41329;41.594;23.810;2023-03-14T02:48:41;95422.56;;;3.83;56.03
55466;BME280;41329;41.594;23.810;2023-03-14T02:51:08;95407.66;;;3.72;56.48
55466;BME280;41329;41.594;23.810;2023-03-14T02:53:35;95417.72;;;3.80;56.57
55466;BME280;41329;41.594;23.810;2023-03-14T02:56:02;95417.41;;;3.81;56.86
55466;BME280;41329;41.594;23.810;2023-03-14T02:58:28;95419.34;;;3.81;57.06
55466;BME280;41329;41.594;23.810;2023-03-14T03:00:54;95393.34;;;3.66;57.19
55466;BME280;41329;41.594;23.810;2023-03-14T03:03:20;95405.38;;;3.74;57.42
55466;BME280;41329;41.594;23.810;2023-03-14T03:05:50;95420.78;;;3.87;56.75
55466;BME280;41329;41.594;23.810;2023-03-14T03:08:16;95365.34;;;3.52;56.46
55466;BME280;41329;41.594;23.810;2023-03-14T03:10:42;95427.06;;;3.87;56.06
55466;BME280;41329;41.594;23.810;2023-03-14T03:13:07;95416.78;;;3.76;55.69
55466;BME280;41329;41.594;23.810;2023-03-14T03:15:33;95426.91;;;3.84;55.85
55466;BME280;41329;41.594;23.810;2023-03-14T03:17:58;95416.19;;;3.70;56.49
55466;BME280;41329;41.594;23.810;2023-03-14T03:20:24;95375.06;;;3.41;56.55
55466;BME280;41329;41.594;23.810;2023-03-14T03:22:49;95424.53;;;3.65;57.17
55466;BME280;41329;41.594;23.810;2023-03-14T03:25:15;95419.06;;;3.65;57.12
55466;BME280;41329;41.594;23.810;2023-03-14T03:27:41;95401.41;;;3.54;57.04
55466;BME280;41329;41.594;23.810;2023-03-14T03:30:07;95414.72;;;3.64;56.81
55466;BME280;41329;41.594;23.810;2023-03-14T03:32:33;95409.63;;;3.54;56.39
55466;BME280;41329;41.594;23.810;2023-03-14T03:34:59;95420.09;;;3.44;55.93
55466;BME280;41329;41.594;23.810;2023-03-14T03:37:24;95423.00;;;3.30;56.33
55466;BME280;41329;41.594;23.810;2023-03-14T03:39:50;95375.78;;;2.87;56.29
55466;BME280;41329;41.594;23.810;2023-03-14T03:42:17;95417.38;;;3.18;56.68
55466;BME280;41329;41.594;23.810;2023-03-14T03:44:43;95416.41;;;3.14;57.04
55466;BME280;41329;41.594;23.810;2023-03-14T03:47:08;95400.81;;;3.06;57.23
55466;BME280;41329;41.594;23.810;2023-03-14T03:49:34;95389.44;;;3.04;57.28
55466;BME280;41329;41.594;23.810;2023-03-14T03:52:00;95410.47;;;3.12;57.54
55466;BME280;41329;41.594;23.810;2023-03-14T03:54:25;95390.72;;;2.98;57.70
55466;BME280;41329;41.594;23.810;2023-03-14T03:56:51;95401.19;;;3.05;57.97
55466;BME280;41329;41.594;23.810;2023-03-14T03:59:17;95398.25;;;3.01;58.28
55466;BME280;41329;41.594;23.810;2023-03-14T04:01:43;95409.69;;;3.03;58.05
55466;BME280;41329;41.594;23.810;2023-03-14T04:04:09;95407.13;;;2.90;57.81
55466;BME280;41329;41.594;23.810;2023-03-14T04:06:34;95404.22;;;2.95;57.76
55466;BME280;41329;41.594;23.810;2023-03-14T04:09:00;95397.63;;;2.96;57.83
55466;BME280;41329;41.594;23.810;2023-03-14T04:11:26;95387.66;;;2.91;57.74
55466;BME280;41329;41.594;23.810;2023-03-14T04:13:51;95399.25;;;2.97;57.51
55466;BME280;41329;41.594;23.810;2023-03-14T04:16:21;95382.84;;;2.88;57.67
55466;BME280;41329;41.594;23.810;2023-03-14T04:18:47;95395.38;;;2.98;57.37
55466;BME280;41329;41.594;23.810;2023-03-14T04:21:13;95390.09;;;2.93;57.41
55466;BME280;41329;41.594;23.810;2023-03-14T04:23:39;95400.19;;;2.92;57.77
55466;BME280;41329;41.594;23.810;2023-03-14T04:26:04;95383.63;;;2.80;57.95
55466;BME280;41329;41.594;23.810;2023-03-14T04:28:30;95404.84;;;2.92;57.93
55466;BME280;41329;41.594;23.810;2023-03-14T04:30:55;95409.22;;;2.93;57.86
55466;BME280;41329;41.594;23.810;2023-03-14T04:33:21;95404.84;;;2.92;57.78
55466;BME280;41329;41.594;23.810;2023-03-14T04:35:48;95410.16;;;2.88;57.67
55466;BME280;41329;41.594;23.810;2023-03-14T04:38:15;95413.88;;;2.84;57.63
55466;BME280;41329;41.594;23.810;2023-03-14T04:40:42;95398.41;;;2.71;58.09
55466;BME280;41329;41.594;23.810;2023-03-14T04:43:11;95404.22;;;2.78;58.06
55466;BME280;41329;41.594;23.810;2023-03-14T04:45:37;95411.78;;;2.81;57.76
55466;BME280;41329;41.594;23.810;2023-03-14T04:48:02;95414.00;;;2.79;58.54
55466;BME280;41329;41.594;23.810;2023-03-14T04:50:28;95408.91;;;2.77;58.51
55466;BME280;41329;41.594;23.810;2023-03-14T04:52:54;95389.59;;;2.65;58.41
55466;BME280;41329;41.594;23.810;2023-03-14T04:55:19;95410.50;;;2.78;58.47
55466;BME280;41329;41.594;23.810;2023-03-14T04:57:45;95415.47;;;2.76;58.57
55466;BME280;41329;41.594;23.810;2023-03-14T05:00:11;95400.38;;;2.70;58.86
55466;BME280;41329;41.594;23.810;2023-03-14T05:02:36;95402.94;;;2.67;58.59
55466;BME280;41329;41.594;23.810;2023-03-14T05:05:02;95393.91;;;2.58;58.56
55466;BME280;41329;41.594;23.810;2023-03-14T05:07:27;95406.78;;;2.57;58.53
55466;BME280;41329;41.594;23.810;2023-03-14T05:09:52;95419.47;;;2.53;59.10
55466;BME280;41329;41.594;23.810;2023-03-14T05:12:19;95420.59;;;2.52;59.56
55466;BME280;41329;41.594;23.810;2023-03-14T05:14:45;95408.50;;;2.45;59.94
55466;BME280;41329;41.594;23.810;2023-03-14T05:17:10;95389.25;;;2.41;60.13
55466;BME280;41329;41.594;23.810;2023-03-14T05:19:38;95417.53;;;2.62;60.26
55466;BME280;41329;41.594;23.810;2023-03-14T05:22:03;95410.78;;;2.68;60.21
55466;BME280;41329;41.594;23.810;2023-03-14T05:24:29;95423.97;;;2.75;60.05
55466;BME280;41329;41.594;23.810;2023-03-14T05:26:54;95420.28;;;2.79;59.90
55466;BME280;41329;41.594;23.810;2023-03-14T05:29:20;95407.94;;;2.73;59.96
55466;BME280;41329;41.594;23.810;2023-03-14T05:31:45;95414.34;;;2.77;59.94
55466;BME280;41329;41.594;23.810;2023-03-14T05:34:10;95408.06;;;2.77;59.93
55466;BME280;41329;41.594;23.810;2023-03-14T05:36:36;95421.09;;;2.88;60.36
55466;BME280;41329;41.594;23.810;2023-03-14T05:39:01;95414.81;;;2.96;60.46
55466;BME280;41329;41.594;23.810;2023-03-14T05:41:27;95400.19;;;2.92;60.20
55466;BME280;41329;41.594;23.810;2023-03-14T05:43:52;95400.03;;;2.97;60.47
55466;BME280;41329;41.594;23.810;2023-03-14T05:46:18;95412.09;;;3.13;60.60
55466;BME280;41329;41.594;23.810;2023-03-14T05:48:43;95413.69;;;3.23;60.40
55466;BME280;41329;41.594;23.810;2023-03-14T05:51:09;95419.31;;;3.26;60.35
55466;BME280;41329;41.594;23.810;2023-03-14T05:53:34;95421.72;;;3.11;60.30
55466;BME280;41329;41.594;23.810;2023-03-14T05:55:59;95418.34;;;3.05;60.58
55466;BME280;41329;41.594;23.810;2023-03-14T05:58:25;95408.88;;;3.03;60.95
55466;BME280;41329;41.594;23.810;2023-03-14T06:00:50;95423.50;;;3.24;60.95
55466;BME280;41329;41.594;23.810;2023-03-14T06:03:16;95417.53;;;3.30;60.88
55466;BME280;41329;41.594;23.810;2023-03-14T06:05:41;95413.16;;;3.38;60.67
55466;BME280;41329;41.594;23.810;2023-03-14T06:08:07;95421.38;;;3.46;60.16
55466;BME280;41329;41.594;23.810;2023-03-14T06:10:34;95396.75;;;3.46;60.13
55466;BME280;41329;41.594;23.810;2023-03-14T06:13:00;95409.47;;;3.42;60.24
55466;BME280;41329;41.594;23.810;2023-03-14T06:15:25;95403.84;;;3.30;60.46
55466;BME280;41329;41.594;23.810;2023-03-14T06:17:54;95407.91;;;3.07;61.46
55466;BME280;41329;41.594;23.810;2023-03-14T06:20:20;95386.06;;;2.82;62.64
55466;BME280;41329;41.594;23.810;2023-03-14T06:22:46;95409.38;;;2.88;63.00
55466;BME280;41329;41.594;23.810;2023-03-14T06:25:11;95405.34;;;2.85;63.22
55466;BME280;41329;41.594;23.810;2023-03-14T06:27:37;95411.28;;;2.70;63.68
55466;BME280;41329;41.594;23.810;2023-03-14T06:30:02;95405.03;;;2.78;63.73
55466;BME280;41329;41.594;23.810;2023-03-14T06:32:28;95411.47;;;2.99;63.37
55466;BME280;41329;41.594;23.810;2023-03-14T06:34:53;95413.84;;;3.09;63.21
55466;BME280;41329;41.594;23.810;2023-03-14T06:37:19;95415.31;;;3.15;63.29
55466;BME280;41329;41.594;23.810;2023-03-14T06:39:44;95401.28;;;3.17;63.43
55466;BME280;41329;41.594;23.810;2023-03-14T06:42:10;95401.94;;;3.22;63.67
55466;BME280;41329;41.594;23.810;2023-03-14T06:44:35;95407.06;;;3.41;63.46
55466;BME280;41329;41.594;23.810;2023-03-14T06:47:01;95405.28;;;3.45;63.27
55466;BME280;41329;41.594;23.810;2023-03-14T06:49:26;95399.84;;;3.28;63.86
55466;BME280;41329;41.594;23.810;2023-03-14T06:51:52;95400.13;;;3.43;64.01
55466;BME280;41329;41.594;23.810;2023-03-14T06:54:17;95399.66;;;3.33;64.33
55466;BME280;41329;41.594;23.810;2023-03-14T06:56:43;95398.69;;;3.46;64.64
55466;BME280;41329;41.594;23.810;2023-03-14T06:59:08;95395.75;;;3.68;65.17
55466;BME280;41329;41.594;23.810;2023-03-14T07:01:34;95382.66;;;3.82;64.52
55466;BME280;41329;41.594;23.810;2023-03-14T07:04:00;95384.88;;;3.88;64.47
55466;BME280;41329;41.594;23.810;2023-03-14T07:06:26;95377.72;;;4.04;63.98
55466;BME280;41329;41.594;23.810;2023-03-14T07:08:52;95364.66;;;4.10;63.65
55466;BME280;41329;41.594;23.810;2023-03-14T07:11:17;95385.78;;;4.30;62.67
55466;BME280;41329;41.594;23.810;2023-03-14T07:13:42;95368.09;;;4.27;62.42
55466;BME280;41329;41.594;23.810;2023-03-14T07:16:08;95363.66;;;4.14;62.08
55466;BME280;41329;41.594;23.810;2023-03-14T07:18:34;95374.56;;;4.23;62.20
55466;BME280;41329;41.594;23.810;2023-03-14T07:20:59;95367.19;;;4.15;62.59
55466;BME280;41329;41.594;23.810;2023-03-14T07:23:25;95382.72;;;4.31;62.64
55466;BME280;41329;41.594;23.810;2023-03-14T07:25:50;95369.78;;;4.40;62.09
55466;BME280;41329;41.594;23.810;2023-03-14T07:28:17;95355.84;;;4.25;61.80
55466;BME280;41329;41.594;23.810;2023-03-14T07:30:42;95365.19;;;4.53;62.79
55466;BME280;41329;41.594;23.810;2023-03-14T07:33:08;95344.66;;;4.59;62.84
55466;BME280;41329;41.594;23.810;2023-03-14T07:35:33;95344.69;;;4.79;62.49
55466;BME280;41329;41.594;23.810;2023-03-14T07:37:59;95366.53;;;5.08;62.18
55466;BME280;41329;41.594;23.810;2023-03-14T07:40:24;95341.66;;;5.13;61.06
55466;BME280;41329;41.594;23.810;2023-03-14T07:42:50;95346.03;;;5.26;60.30
55466;BME280;41329;41.594;23.810;2023-03-14T07:45:15;95360.03;;;5.45;60.20
55466;BME280;41329;41.594;23.810;2023-03-14T07:47:41;95351.38;;;5.55;60.47
55466;BME280;41329;41.594;23.810;2023-03-14T07:50:07;95336.06;;;5.54;59.08
55466;BME280;41329;41.594;23.810;2023-03-14T07:52:33;95342.28;;;5.87;60.10
55466;BME280;41329;41.594;23.810;2023-03-14T07:54:58;95346.78;;;6.04;58.48
55466;BME280;41329;41.594;23.810;2023-03-14T07:57:24;95344.25;;;6.23;59.26
55466;BME280;41329;41.594;23.810;2023-03-14T07:59:49;95326.41;;;6.41;59.68
55466;BME280;41329;41.594;23.810;2023-03-14T08:02:15;95337.66;;;6.76;58.17
55466;BME280;41329;41.594;23.810;2023-03-14T08:04:41;95339.94;;;6.86;56.94
55466;BME280;41329;41.594;23.810;2023-03-14T08:07:07;95328.47;;;6.84;55.01
55466;BME280;41329;41.594;23.810;2023-03-14T08:09:32;95328.84;;;7.10;55.53
55466;BME280;41329;41.594;23.810;2023-03-14T08:11:58;95325.38;;;7.40;55.57
55466;BME280;41329;41.594;23.810;2023-03-14T08:14:23;95314.28;;;7.37;52.81
55466;BME280;41329;41.594;23.810;2023-03-14T08:16:51;95328.97;;;7.41;52.22
55466;BME280;41329;41.594;23.810;2023-03-14T08:19:17;95303.53;;;7.32;50.48
55466;BME280;41329;41.594;23.810;2023-03-14T08:21:42;95317.44;;;7.23;52.04
55466;BME280;41329;41.594;23.810;2023-03-14T08:24:08;95311.81;;;7.32;52.26
55466;BME280;41329;41.594;23.810;2023-03-14T08:26:33;95308.91;;;7.56;51.63
55466;BME280;41329;41.594;23.810;2023-03-14T08:28:59;95301.91;;;7.74;52.29
55466;BME280;41329;41.594;23.810;2023-03-14T08:31:24;95296.69;;;8.00;51.43
55466;BME280;41329;41.594;23.810;2023-03-14T08:33:50;95293.47;;;8.13;50.38
55466;BME280;41329;41.594;23.810;2023-03-14T08:36:17;95303.63;;;8.25;50.79
55466;BME280;41329;41.594;23.810;2023-03-14T08:38:43;95297.38;;;8.43;49.97
55466;BME280;41329;41.594;23.810;2023-03-14T08:41:09;95275.97;;;8.56;49.99
55466;BME280;41329;41.594;23.810;2023-03-14T08:43:34;95289.31;;;8.69;48.34
55466;BME280;41329;41.594;23.810;2023-03-14T08:46:01;95285.91;;;8.76;49.37
55466;BME280;41329;41.594;23.810;2023-03-14T08:48:27;95266.16;;;8.93;49.88
55466;BME280;41329;41.594;23.810;2023-03-14T08:50:55;95276.63;;;9.22;47.85
55466;BME280;41329;41.594;23.810;2023-03-14T08:53:20;95227.91;;;9.10;48.83
55466;BME280;41329;41.594;23.810;2023-03-14T08:55:47;95248.75;;;9.49;47.15
55466;BME280;41329;41.594;23.810;2023-03-14T08:58:17;95230.22;;;9.50;44.88
55466;BME280;41329;41.594;23.810;2023-03-14T09:00:42;95257.91;;;9.76;47.62
55466;BME280;41329;41.594;23.810;2023-03-14T09:03:07;95259.19;;;10.04;47.69
55466;BME280;41329;41.594;23.810;2023-03-14T09:05:33;95252.50;;;10.28;45.13
55466;BME280;41329;41.594;23.810;2023-03-14T09:07:59;95241.19;;;10.36;44.91
55466;BME280;41329;41.594;23.810;2023-03-14T09:10:25;95217.34;;;10.28;43.02
55466;BME280;41329;41.594;23.810;2023-03-14T09:12:50;95235.25;;;10.64;43.61
55466;BME280;41329;41.594;23.810;2023-03-14T09:15:16;95233.00;;;10.73;42.19
55466;BME280;41329;41.594;23.810;2023-03-14T09:17:43;95238.72;;;10.87;42.04
55466;BME280;41329;41.594;23.810;2023-03-14T09:20:09;95251.06;;;10.93;42.48
55466;BME280;41329;41.594;23.810;2023-03-14T09:22:36;95223.06;;;10.98;43.95
55466;BME280;41329;41.594;23.810;2023-03-14T09:25:04;95230.66;;;11.37;46.00
55466;BME280;41329;41.594;23.810;2023-03-14T09:27:29;95232.56;;;11.66;42.19
55466;BME280;41329;41.594;23.810;2023-03-14T09:29:55;95213.53;;;11.65;40.98
55466;BME280;41329;41.594;23.810;2023-03-14T09:32:20;95213.66;;;11.79;40.12
55466;BME280;41329;41.594;23.810;2023-03-14T09:34:46;95214.16;;;11.88;41.31
55466;BME280;41329;41.594;23.810;2023-03-14T09:37:11;95214.69;;;12.07;42.69
55466;BME280;41329;41.594;23.810;2023-03-14T09:39:37;95185.09;;;12.22;40.86
55466;BME280;41329;41.594;23.810;2023-03-14T09:42:04;95201.88;;;12.36;39.48
55466;BME280;41329;41.594;23.810;2023-03-14T09:44:56;95190.09;;;12.53;40.67
55466;BME280;41329;41.594;23.810;2023-03-14T09:47:23;95192.22;;;12.77;40.71
55466;BME280;41329;41.594;23.810;2023-03-14T09:49:49;95166.44;;;12.80;38.51
55466;BME280;41329;41.594;23.810;2023-03-14T09:52:33;95171.72;;;13.03;40.50
55466;BME280;41329;41.594;23.810;2023-03-14T09:55:03;95153.78;;;12.93;39.05
55466;BME280;41329;41.594;23.810;2023-03-14T09:57:29;95167.03;;;13.28;38.91
55466;BME280;41329;41.594;23.810;2023-03-14T10:00:01;95164.25;;;13.31;37.54
55466;BME280;41329;41.594;23.810;2023-03-14T10:02:37;95159.88;;;13.20;35.25
55466;BME280;41329;41.594;23.810;2023-03-14T10:05:13;95141.63;;;13.22;34.29
55466;BME280;41329;41.594;23.810;2023-03-14T10:07:39;95135.63;;;13.10;34.57
55466;BME280;41329;41.594;23.810;2023-03-14T10:10:10;95130.13;;;13.20;36.83
55466;BME280;41329;41.594;23.810;2023-03-14T10:12:38;95128.16;;;13.42;37.55
55466;BME280;41329;41.594;23.810;2023-03-14T10:15:10;95123.44;;;13.84;39.22
55466;BME280;41329;41.594;23.810;2023-03-14T10:17:41;95110.31;;;14.16;34.44
55466;BME280;41329;41.594;23.810;2023-03-14T10:20:35;95112.69;;;14.25;34.28
55466;BME280;41329;41.594;23.810;2023-03-14T10:25:58;95090.44;;;14.28;34.34
55466;BME280;41329;41.594;23.810;2023-03-14T10:28:28;95092.72;;;14.65;35.11
55466;BME280;41329;41.594;23.810;2023-03-14T10:30:55;95093.16;;;14.60;33.19
55466;BME280;41329;41.594;23.810;2023-03-14T10:33:26;95087.94;;;14.69;35.52
55466;BME280;41329;41.594;23.810;2023-03-14T10:36:03;95074.78;;;14.73;34.22
55466;BME280;41329;41.594;23.810;2023-03-14T10:38:36;95050.97;;;14.58;32.82
55466;BME280;41329;41.594;23.810;2023-03-14T10:41:04;95065.56;;;14.86;34.11
55466;BME280;41329;41.594;23.810;2023-03-14T10:43:40;95060.28;;;15.09;36.08
55466;BME280;41329;41.594;23.810;2023-03-14T10:46:14;95054.91;;;15.46;35.95
55466;BME280;41329;41.594;23.810;2023-03-14T10:48:41;95037.28;;;15.56;33.30
55466;BME280;41329;41.594;23.810;2023-03-14T10:51:08;95032.78;;;15.69;33.71
55466;BME280;41329;41.594;23.810;2023-03-14T10:56:02;95026.31;;;15.83;33.17
55466;BME280;41329;41.594;23.810;2023-03-14T10:58:30;95023.44;;;15.90;33.66
55466;BME280;41329;41.594;23.810;2023-03-14T11:01:51;95011.44;;;15.93;31.11
55466;BME280;41329;41.594;23.810;2023-03-14T11:07:04;94979.75;;;15.73;33.62
55466;BME280;41329;41.594;23.810;2023-03-14T11:14:59;94983.00;;;15.68;30.76
55466;BME280;41329;41.594;23.810;2023-03-14T11:17:41;94963.50;;;15.64;31.24
55466;BME280;41329;41.594;23.810;2023-03-14T11:23:18;94939.63;;;16.00;34.18
55466;BME280;41329;41.594;23.810;2023-03-14T11:28:49;94934.41;;;16.69;31.55
55466;BME280;41329;41.594;23.810;2023-03-14T11:33:56;94923.91;;;16.77;28.69
55466;BME280;41329;41.594;23.810;2023-03-14T11:36:41;94910.59;;;16.88;30.36
55466;BME280;41329;41.594;23.810;2023-03-14T11:39:17;94909.50;;;17.05;29.64
55466;BME280;41329;41.594;23.810;2023-03-14T11:41:49;94897.53;;;17.04;30.13
55466;BME280;41329;41.594;23.810;2023-03-14T11:44:20;94890.28;;;17.10;29.63
55466;BME280;41329;41.594;23.810;2023-03-14T11:46:53;94880.00;;;17.27;30.03
55466;BME280;41329;41.594;23.810;2023-03-14T11:51:57;94873.19;;;17.74;28.67
55466;BME280;41329;41.594;23.810;2023-03-14T11:56:55;94858.19;;;18.23;29.26
55466;BME280;41329;41.594;23.810;2023-03-14T11:59:24;94857.50;;;18.39;29.44
55466;BME280;41329;41.594;23.810;2023-03-14T12:02:01;94854.59;;;18.62;29.56
55466;BME280;41329;41.594;23.810;2023-03-14T12:04:34;94839.28;;;18.82;28.01
55466;BME280;41329;41.594;23.810;2023-03-14T12:07:14;94821.38;;;18.44;27.35
55466;BME280;41329;41.594;23.810;2023-03-14T12:09:43;94803.69;;;18.47;26.85
55466;BME280;41329;41.594;23.810;2023-03-14T12:12:14;94805.81;;;18.59;27.08
55466;BME280;41329;41.594;23.810;2023-03-14T12:14:53;94812.22;;;18.76;26.19
55466;BME280;41329;41.594;23.810;2023-03-14T12:17:41;94808.56;;;18.79;25.34
55466;BME280;41329;41.594;23.810;2023-03-14T12:28:03;94786.56;;;18.93;26.80
55466;BME280;41329;41.594;23.810;2023-03-14T12:30:38;94780.00;;;19.16;28.06
55466;BME280;41329;41.594;23.810;2023-03-14T12:35:43;94778.50;;;19.43;24.47
55466;BME280;41329;41.594;23.810;2023-03-14T12:38:14;94756.06;;;19.27;25.00
55466;BME280;41329;41.594;23.810;2023-03-14T12:40:58;94763.41;;;19.21;24.15
55466;BME280;41329;41.594;23.810;2023-03-14T12:43:29;94752.94;;;19.09;24.93
55466;BME280;41329;41.594;23.810;2023-03-14T12:48:50;94745.50;;;18.87;24.55
55466;BME280;41329;41.594;23.810;2023-03-14T12:51:21;94721.84;;;18.88;26.59
55466;BME280;41329;41.594;23.810;2023-03-14T12:56:39;94729.19;;;19.42;26.52
55466;BME280;41329;41.594;23.810;2023-03-14T12:59:35;94736.97;;;19.79;27.16
55466;BME280;41329;41.594;23.810;2023-03-14T13:02:20;94712.59;;;19.76;25.16
55466;BME280;41329;41.594;23.810;2023-03-14T13:08:01;94706.97;;;19.35;24.72
55466;BME280;41329;41.594;23.810;2023-03-14T13:10:27;94686.47;;;19.22;25.40
55466;BME280;41329;41.594;23.810;2023-03-14T13:15:34;94693.91;;;19.57;25.06
55466;BME280;41329;41.594;23.810;2023-03-14T13:21:24;94682.63;;;19.16;24.60
55466;BME280;41329;41.594;23.810;2023-03-14T13:24:05;94635.38;;;18.86;25.66
55466;BME280;41329;41.594;23.810;2023-03-14T13:26:36;94676.16;;;19.48;26.43
55466;BME280;41329;41.594;23.810;2023-03-14T13:29:29;94666.16;;;19.47;24.87
55466;BME280;41329;41.594;23.810;2023-03-14T13:32:00;94660.84;;;19.36;25.22
55466;BME280;41329;41.594;23.810;2023-03-14T13:34:28;94650.88;;;19.19;25.67
55466;BME280;41329;41.594;23.810;2023-03-14T13:36:54;94645.50;;;19.41;25.83
55466;BME280;41329;41.594;23.810;2023-03-14T13:39:22;94653.25;;;19.49;25.16
55466;BME280;41329;41.594;23.810;2023-03-14T13:41:53;94655.78;;;19.31;25.89
55466;BME280;41329;41.594;23.810;2023-03-14T13:44:32;94646.31;;;18.97;26.36
55466;BME280;41329;41.594;23.810;2023-03-14T13:47:00;94640.59;;;18.56;26.82
55466;BME280;41329;41.594;23.810;2023-03-14T13:49:27;94635.91;;;18.81;27.37
55466;BME280;41329;41.594;23.810;2023-03-14T13:51:54;94644.25;;;18.69;26.95
55466;BME280;41329;41.594;23.810;2023-03-14T13:54:21;94627.06;;;18.83;27.71
55466;BME280;41329;41.594;23.810;2023-03-14T13:56:47;94621.31;;;19.02;27.54
55466;BME280;41329;41.594;23.810;2023-03-14T14:01:49;94632.88;;;19.04;28.03
55466;BME280;41329;41.594;23.810;2023-03-14T14:04:18;94615.50;;;18.81;28.61